
Distance (Route):
Temperature : 13.8°C
Humidity : 0%
Pressure : 0hPa| Receiver | Date | Latitude | Longitude | Direction | Speed | Altitude | Climb | Temperature | Humidity | Pressure | Voltage | Killtimer | Uptime | BKT | XDATA |
|---|---|---|---|---|---|---|---|---|---|---|---|---|---|---|---|
| LZ4TU-5 | 2026-09-02 19:08:22 | 43.43736 | 22.78471 | 286° | 7km/h | 2089m | -13.7m/s | 13.8°C | 0% | 0hPa | 0V | 00:00:00 | 00:00:00 | 00:00:00 | |
| LZ4TU-5 | 2026-09-02 19:08:02 | 43.43753 | 22.78515 | 223° | 7km/h | 2357m | -13.5m/s | 11.5°C | 46.8% | 0hPa | 0V | 00:00:00 | 00:00:00 | 00:00:00 | |
| LZ4TU-5 | 2026-09-02 19:07:28 | 43.43792 | 22.78456 | 91° | 15km/h | 2836m | -13.9m/s | 8.6°C | 62.2% | 0hPa | 0V | 00:00:00 | 00:00:00 | 00:00:00 | |
| LZ4TU-5 | 2026-09-02 19:06:52 | 43.43842 | 22.78228 | 111° | 24km/h | 3339m | -13.0m/s | 4.3°C | 76.5% | 0hPa | 0V | 00:00:00 | 00:00:00 | 00:00:00 | |
| LZ4TU-5 | 2026-09-02 19:06:47 | 43.43851 | 22.78195 | 104° | 22km/h | 3398m | -13.3m/s | 3.7°C | 80.2% | 0hPa | 0V | 00:00:00 | 00:00:00 | 00:00:00 | |
| LZ4TU-5 | 2026-09-02 19:06:43 | 43.43858 | 22.78162 | 111° | 26km/h | 3454m | -13.6m/s | 3.2°C | 75.9% | 0hPa | 0V | 00:00:00 | 00:00:00 | 00:00:00 | |
| LZ4TU-5 | 2026-09-02 19:06:26 | 43.43917 | 22.78013 | 122° | 35km/h | 3698m | -13.8m/s | 1.7°C | 0% | 0hPa | 0V | 00:00:00 | 00:00:00 | 00:00:00 | |
| LZ4TU-5 | 2026-09-02 19:05:25 | 43.44106 | 22.77166 | 82° | 44km/h | 4515m | -14.1m/s | -3.1°C | 52.5% | 0hPa | 0V | 00:00:00 | 00:00:00 | 00:00:00 | |
| OM5KV | 2026-09-02 18:49:19 | 43.41333 | 22.61102 | 276° | 13km/h | 30774m | 9.3m/s | -41.9°C | 0.0% | 0hPa | 0V | 00:00:00 | 00:00:00 | 00:00:00 | |
| OM5KV | 2026-09-02 18:49:14 | 43.41339 | 22.61115 | 205° | 33km/h | 30742m | 7.4m/s | -41.9°C | 0.0% | 0hPa | 0V | 00:00:00 | 00:00:00 | 00:00:00 | |
| OM5KV | 2026-09-02 18:49:03 | 43.41388 | 22.61171 | 196° | 47km/h | 30676m | 3.7m/s | -41.9°C | 0.0% | 0hPa | 0V | 00:00:00 | 00:00:00 | 00:00:00 | |
| OM5KV | 2026-09-02 18:48:54 | 43.41420 | 22.61207 | 164° | 55km/h | 30620m | 4.3m/s | -42.1°C | 0.0% | 0hPa | 0V | 00:00:00 | 00:00:00 | 00:00:00 | |
| OM5KV | 2026-09-02 18:48:42 | 43.41475 | 22.61231 | 203° | 53km/h | 30544m | 6.4m/s | -42.7°C | 0.0% | 0hPa | 0V | 00:00:00 | 00:00:00 | 00:00:00 | |
| OM5KV | 2026-09-02 18:48:32 | 43.41496 | 22.61261 | 211° | 37km/h | 30481m | 8.3m/s | -42.9°C | 0.0% | 0hPa | 0V | 00:00:00 | 00:00:00 | 00:00:00 | |
| OM5KV | 2026-09-02 18:48:30 | 43.41514 | 22.61277 | 214° | 40km/h | 30468m | 5.6m/s | -43.0°C | 0.0% | 0hPa | 0V | 00:00:00 | 00:00:00 | 00:00:00 | |
| OM5KV | 2026-09-02 18:48:23 | 43.41524 | 22.61283 | 323° | 5km/h | 30422m | 6.0m/s | -43.1°C | 0.0% | 0hPa | 0V | 00:00:00 | 00:00:00 | 00:00:00 | |
| OM5KV | 2026-09-02 18:48:17 | 43.41550 | 22.61305 | 252° | 27km/h | 30385m | 7.3m/s | -43.2°C | 0.0% | 0hPa | 0V | 00:00:00 | 00:00:00 | 00:00:00 | |
| OM5KV | 2026-09-02 18:48:12 | 43.41534 | 22.61315 | 91° | 22km/h | 30355m | 6.6m/s | -43.2°C | 0.0% | 0hPa | 0V | 00:00:00 | 00:00:00 | 00:00:00 | |
| OM5KV | 2026-09-02 18:48:10 | 43.41543 | 22.61302 | 164° | 31km/h | 30344m | 5.7m/s | -43.2°C | 0.0% | 0hPa | 0V | 00:00:00 | 00:00:00 | 00:00:00 | |
| OM5KV | 2026-09-02 18:47:54 | 43.41550 | 22.61343 | 326° | 29km/h | 30245m | 5.7m/s | -43.2°C | 0.0% | 0hPa | 0V | 00:00:00 | 00:00:00 | 00:00:00 | |
| OM5KV | 2026-09-02 18:47:52 | 43.41538 | 22.61350 | 355° | 18km/h | 30233m | 5.9m/s | -43.3°C | 0.0% | 0hPa | 0V | 00:00:00 | 00:00:00 | 00:00:00 | |
| OM5KV | 2026-09-02 18:47:45 | 43.41531 | 22.61346 | 278° | 20km/h | 30191m | 5.9m/s | -43.3°C | 0.0% | 0hPa | 0V | 00:00:00 | 00:00:00 | 00:00:00 | |
| OM5KV | 2026-09-02 18:47:37 | 43.41511 | 22.61365 | 333° | 29km/h | 30147m | 5.8m/s | -43.6°C | 0.0% | 0hPa | 0V | 00:00:00 | 00:00:00 | 00:00:00 | |
| OM5KV | 2026-09-02 18:47:22 | 43.41497 | 22.61453 | 197° | 35km/h | 30059m | 4.5m/s | -43.5°C | 0.0% | 0hPa | 0V | 00:00:00 | 00:00:00 | 00:00:00 | |
| OM5KV | 2026-09-02 18:47:20 | 43.41509 | 22.61463 | 240° | 22km/h | 30050m | 5.6m/s | -43.5°C | 0.0% | 0hPa | 0V | 00:00:00 | 00:00:00 | 00:00:00 | |
| OM5KV | 2026-09-02 18:47:15 | 43.41487 | 22.61504 | 310° | 20km/h | 30020m | 4.9m/s | -43.6°C | 0.0% | 0hPa | 0V | 00:00:00 | 00:00:00 | 00:00:00 | |
| OM5KV | 2026-09-02 18:47:10 | 43.41508 | 22.61531 | 226° | 37km/h | 29987m | 4.9m/s | -43.7°C | 0.0% | 0hPa | 0V | 00:00:00 | 00:00:00 | 00:00:00 | |
| OM5KV | 2026-09-02 18:47:04 | 43.41517 | 22.61573 | 298° | 16km/h | 29950m | 5.5m/s | -43.8°C | 0.0% | 0hPa | 0V | 00:00:00 | 00:00:00 | 00:00:00 | |
| OM5KV | 2026-09-02 18:47:01 | 43.41514 | 22.61594 | 253° | 26km/h | 29933m | 4.7m/s | -43.8°C | 0.0% | 0hPa | 0V | 00:00:00 | 00:00:00 | 00:00:00 | |
| OM5KV | 2026-09-02 18:46:55 | 43.41549 | 22.61627 | 235° | 20km/h | 29896m | 7.2m/s | -43.8°C | 0.0% | 0hPa | 0V | 00:00:00 | 00:00:00 | 00:00:00 | |
| OM5KV | 2026-09-02 18:46:50 | 43.41550 | 22.61666 | 217° | 22km/h | 29865m | 6.1m/s | -43.9°C | 0.0% | 0hPa | 0V | 00:00:00 | 00:00:00 | 00:00:00 | |
| OM5KV | 2026-09-02 18:46:48 | 43.41563 | 22.61673 | 197° | 33km/h | 29853m | 5.7m/s | -44.0°C | 0.0% | 0hPa | 0V | 00:00:00 | 00:00:00 | 00:00:00 | |
| OM5KV | 2026-09-02 18:46:43 | 43.41587 | 22.61699 | 255° | 18km/h | 29822m | 6.1m/s | -44.0°C | 0.0% | 0hPa | 0V | 00:00:00 | 00:00:00 | 00:00:00 | |
| OM5KV | 2026-09-02 18:46:41 | 43.41590 | 22.61705 | 179° | 9km/h | 29809m | 7.2m/s | -44.0°C | 0.0% | 0hPa | 0V | 00:00:00 | 00:00:00 | 00:00:00 | |
| OM5KV | 2026-09-02 18:46:34 | 43.41621 | 22.61725 | 216° | 29km/h | 29764m | 5.1m/s | -44.0°C | 0.0% | 0hPa | 0V | 00:00:00 | 00:00:00 | 00:00:00 | |
| OM5KV | 2026-09-02 18:46:29 | 43.41629 | 22.61740 | 73° | 5km/h | 29734m | 4.4m/s | -44.1°C | 0.0% | 0hPa | 0V | 00:00:00 | 00:00:00 | 00:00:00 | |
| OM5KV | 2026-09-02 18:46:27 | 43.41632 | 22.61736 | 172° | 18km/h | 29721m | 7.4m/s | -44.1°C | 0.0% | 0hPa | 0V | 00:00:00 | 00:00:00 | 00:00:00 | |
| OM5KV | 2026-09-02 18:46:21 | 43.41662 | 22.61769 | 311° | 15km/h | 29686m | 3.9m/s | -44.1°C | 0.0% | 0hPa | 0V | 00:00:00 | 00:00:00 | 00:00:00 | |
| OM5KV | 2026-09-02 18:46:13 | 43.41684 | 22.61760 | 259° | 27km/h | 29635m | 7.5m/s | -43.9°C | 0.0% | 0hPa | 0V | 00:00:00 | 00:00:00 | 00:00:00 | |
| OM5KV | 2026-09-02 18:46:12 | 43.41685 | 22.61770 | 271° | 33km/h | 29629m | 6.0m/s | -43.9°C | 0.0% | 0hPa | 0V | 00:00:00 | 00:00:00 | 00:00:00 | |
| OM5KV | 2026-09-02 18:46:06 | 43.41703 | 22.61786 | 136° | 18km/h | 29593m | 5.9m/s | -43.8°C | 0.0% | 0hPa | 0V | 00:00:00 | 00:00:00 | 00:00:00 | |
| OM5KV | 2026-09-02 18:46:05 | 43.41706 | 22.61782 | 121° | 13km/h | 29587m | 6.8m/s | -43.8°C | 0.0% | 0hPa | 0V | 00:00:00 | 00:00:00 | 00:00:00 | |
| OM5KV | 2026-09-02 18:46:00 | 43.41711 | 22.61798 | 233° | 33km/h | 29555m | 7.5m/s | -43.8°C | 0.0% | 0hPa | 0V | 00:00:00 | 00:00:00 | 00:00:00 | |
| OM5KV | 2026-09-02 18:45:59 | 43.41717 | 22.61807 | 219° | 37km/h | 29549m | 5.9m/s | -43.8°C | 0.0% | 0hPa | 0V | 00:00:00 | 00:00:00 | 00:00:00 | |
| OM5KV | 2026-09-02 18:45:53 | 43.41732 | 22.61818 | 51° | 11km/h | 29511m | 6.0m/s | -43.7°C | 0.0% | 0hPa | 0V | 00:00:00 | 00:00:00 | 00:00:00 | |
| OM5KV | 2026-09-02 18:45:52 | 43.41731 | 22.61817 | 0° | 0km/h | 29506m | 4.9m/s | -43.7°C | 0.0% | 0hPa | 0V | 00:00:00 | 00:00:00 | 00:00:00 | |
| OM5KV | 2026-09-02 18:45:36 | 43.41781 | 22.61877 | 196° | 46km/h | 29402m | 6.9m/s | -43.9°C | 0.0% | 0hPa | 0V | 00:00:00 | 00:00:00 | 00:00:00 | |
| OM5KV | 2026-09-02 18:45:03 | 43.41847 | 22.61992 | 205° | 26km/h | 29193m | 7.4m/s | -44.7°C | 0.0% | 0hPa | 0V | 00:00:00 | 00:00:00 | 00:00:00 | |
| OM5KV | 2026-09-02 18:44:51 | 43.41857 | 22.62040 | 201° | 31km/h | 29114m | 8.7m/s | -44.6°C | 0.0% | 0hPa | 0V | 00:00:00 | 00:00:00 | 00:00:00 | |
| LZ4TU-5 | 2026-09-02 18:15:01 | 43.43245 | 22.59179 | 136° | 11km/h | 18700m | 5.4m/s | -56.2°C | 2.2% | 0hPa | 0V | 00:00:00 | 00:00:00 | 00:00:00 | |
| LZ4TU-5 | 2026-09-02 18:12:46 | 43.43109 | 22.58219 | 48° | 29km/h | 17994m | 5.8m/s | -57.3°C | 2.8% | 0hPa | 0V | 00:00:00 | 00:00:00 | 00:00:00 | |
| LZ4TU-5 | 2026-09-02 18:12:01 | 43.43013 | 22.57979 | 137° | 29km/h | 17737m | 6.7m/s | -57.5°C | 2.9% | 0hPa | 0V | 00:00:00 | 00:00:00 | 00:00:00 | |
| LZ4TU-5 | 2026-09-02 18:11:45 | 43.43053 | 22.57838 | 92° | 27km/h | 17657m | 5.2m/s | -57.6°C | 2.9% | 0hPa | 0V | 00:00:00 | 00:00:00 | 00:00:00 | |
| LZ4TU-5 | 2026-09-02 18:10:26 | 43.43218 | 22.56476 | 95° | 69km/h | 17270m | 4.6m/s | -59.2°C | 2.9% | 0hPa | 0V | 00:00:00 | 00:00:00 | 00:00:00 | |
| LZ4TU-5 | 2026-09-02 18:10:02 | 43.43210 | 22.55975 | 87° | 66km/h | 17159m | 5.0m/s | -59.8°C | 3.1% | 0hPa | 0V | 00:00:00 | 00:00:00 | 00:00:00 | |
| LZ4TU-5 | 2026-09-02 18:09:43 | 43.43186 | 22.55553 | 81° | 62km/h | 17070m | 5.3m/s | -59.6°C | 3.1% | 0hPa | 0V | 00:00:00 | 00:00:00 | 00:00:00 | |
| LZ4TU-5 | 2026-09-02 18:09:19 | 43.43097 | 22.55058 | 72° | 68km/h | 16962m | 4.6m/s | -60.0°C | 3.4% | 0hPa | 0V | 00:00:00 | 00:00:00 | 00:00:00 | |
| LZ4TU-5 | 2026-09-02 18:09:07 | 43.43047 | 22.54829 | 71° | 53km/h | 16905m | 5.4m/s | -59.9°C | 3.5% | 0hPa | 0V | 00:00:00 | 00:00:00 | 00:00:00 | |
| LZ4TU-5 | 2026-09-02 18:09:01 | 43.43018 | 22.54733 | 72° | 51km/h | 16877m | 5.1m/s | -59.7°C | 3.5% | 0hPa | 0V | 00:00:00 | 00:00:00 | 00:00:00 | |
| LZ4TU-5 | 2026-09-02 18:08:49 | 43.42971 | 22.54536 | 76° | 53km/h | 16818m | 5.1m/s | -59.7°C | 0% | 0hPa | 0V | 00:00:00 | 00:00:00 | 00:00:00 | |
| LZ4TU-5 | 2026-09-02 18:05:07 | 43.42655 | 22.50332 | 72° | 73km/h | 15664m | 5.8m/s | -57.8°C | 0% | 0hPa | 0V | 00:00:00 | 00:00:00 | 00:00:00 | |
| LZ4TU-5 | 2026-09-02 17:53:37 | 43.38108 | 22.29835 | 82° | 124km/h | 12341m | 4.0m/s | -55.7°C | 27.9% | 0hPa | 0V | 00:00:00 | 00:00:00 | 00:00:00 | |
| LZ4TU-5 | 2026-09-02 17:39:03 | 43.30325 | 22.00966 | 107° | 82km/h | 7752m | 3.5m/s | -25.0°C | 0% | 0hPa | 0V | 00:00:00 | 00:00:00 | 00:00:00 | |
| LZ4TU-5 | 2026-09-02 17:36:38 | 43.30174 | 21.97991 | 107° | 77km/h | 7011m | 2.1m/s | -20.0°C | 0% | 0hPa | 0V | 00:00:00 | 00:00:00 | 00:00:00 |